VOZ419 YPAD-YSSY
Flight info
| Callsign | VOZ419 |
|---|---|
| Flight time | 1h 31m |
| Altitude | 35000 |
| Route | AVDEN1 AVDEN H247 CULIN Y59 RIVET RIVET4 |
| Aircraft | B738/M-SDE2E3FGHIRWXY/LB1 |
Departure
| Time | 2026-05-05 19:27 |
|---|---|
| Airport | Adelaide International Airport (YPAD) |
Arrival
| Time | 2026-05-05 20:58 |
|---|---|
| Airport | Sydney Kingsford Smith International Airport (YSSY) |
| Time | Latitude | Longitude | Altitude | Speed | Heading |
|---|---|---|---|---|---|
| 2026-05-05 19:23 | -34.94495 | 138.53358 | 29 ft | 28 kts | 235° |
| 2026-05-05 19:23 | -34.94484 | 138.53144 | 25 ft | 26 kts | 299° |
| 2026-05-05 19:23 | -34.94494 | 138.52955 | 28 ft | 24 kts | 219° |
| 2026-05-05 19:23 | -34.94621 | 138.52836 | 25 ft | 23 kts | 220° |
| 2026-05-05 19:24 | -34.94745 | 138.52722 | 28 ft | 22 kts | 216° |
| 2026-05-05 19:24 | -34.94865 | 138.52609 | 26 ft | 22 kts | 218° |
| 2026-05-05 19:24 | -34.94982 | 138.52498 | 28 ft | 21 kts | 218° |
| 2026-05-05 19:24 | -34.95094 | 138.52392 | 27 ft | 20 kts | 218° |
| 2026-05-05 19:25 | -34.95205 | 138.52289 | 26 ft | 20 kts | 217° |
| 2026-05-05 19:25 | -34.95317 | 138.52199 | 25 ft | 19 kts | 196° |
| 2026-05-05 19:25 | -34.95425 | 138.52264 | 27 ft | 17 kts | 129° |
| 2026-05-05 19:25 | -34.95435 | 138.52326 | 26 ft | 0 kts | 51° |
| 2026-05-05 19:26 | -34.95403 | 138.52373 | 25 ft | 30 kts | 50° |
| 2026-05-05 19:26 | -34.95112 | 138.52799 | 27 ft | 99 kts | 50° |
| 2026-05-05 19:26 | -34.94542 | 138.53633 | 31 ft | 154 kts | 50° |
| 2026-05-05 19:27 | -34.93830 | 138.54683 | 312 ft | 180 kts | 50° |
| 2026-05-05 19:27 | -34.93045 | 138.55852 | 1076 ft | 178 kts | 50° |
| 2026-05-05 19:27 | -34.92248 | 138.57013 | 1863 ft | 179 kts | 47° |
| 2026-05-05 19:27 | -34.91542 | 138.58368 | 2186 ft | 208 kts | 78° |
| 2026-05-05 19:28 | -34.91765 | 138.60152 | 2429 ft | 227 kts | 121° |
| 2026-05-05 19:28 | -34.92685 | 138.61792 | 2724 ft | 241 kts | 126° |
| 2026-05-05 19:28 | -34.93641 | 138.63511 | 3222 ft | 247 kts | 124° |
| 2026-05-05 19:28 | -34.94215 | 138.65471 | 3798 ft | 255 kts | 96° |
| 2026-05-05 19:29 | -34.94284 | 138.67710 | 4263 ft | 271 kts | 92° |
| 2026-05-05 19:29 | -34.94312 | 138.70025 | 5045 ft | 274 kts | 93° |
| 2026-05-05 19:29 | -34.94342 | 138.72365 | 5817 ft | 277 kts | 93° |
| 2026-05-05 19:29 | -34.94378 | 138.74739 | 6547 ft | 281 kts | 92° |
| 2026-05-05 19:30 | -34.94423 | 138.77145 | 7242 ft | 286 kts | 92° |
| 2026-05-05 19:30 | -34.94474 | 138.79586 | 7926 ft | 290 kts | 92° |
| 2026-05-05 19:30 | -34.94530 | 138.82067 | 8608 ft | 294 kts | 92° |
| 2026-05-05 19:30 | -34.94589 | 138.84553 | 9304 ft | 298 kts | 92° |
| 2026-05-05 19:31 | -34.94651 | 138.87104 | 10005 ft | 302 kts | 91° |
| 2026-05-05 19:31 | -34.94716 | 138.89690 | 10570 ft | 311 kts | 91° |
| 2026-05-05 19:31 | -34.94785 | 138.92411 | 10730 ft | 333 kts | 91° |
| 2026-05-05 19:31 | -34.94859 | 138.95340 | 10897 ft | 354 kts | 91° |
| 2026-05-05 19:32 | -34.94937 | 138.98422 | 11091 ft | 372 kts | 91° |
| 2026-05-05 19:32 | -34.95018 | 139.01612 | 11560 ft | 380 kts | 91° |
| 2026-05-05 19:32 | -34.95101 | 139.04848 | 12183 ft | 383 kts | 91° |
| 2026-05-05 19:32 | -34.95182 | 139.08075 | 12830 ft | 386 kts | 91° |
| 2026-05-05 19:33 | -34.95264 | 139.11371 | 13490 ft | 390 kts | 91° |
| 2026-05-05 19:33 | -34.95346 | 139.14701 | 14129 ft | 394 kts | 91° |
| 2026-05-05 19:33 | -34.95428 | 139.18064 | 14728 ft | 398 kts | 91° |
| 2026-05-05 19:33 | -34.95510 | 139.21451 | 15359 ft | 401 kts | 91° |
| 2026-05-05 19:34 | -34.95592 | 139.24876 | 15983 ft | 405 kts | 91° |
| 2026-05-05 19:34 | -34.95672 | 139.28276 | 16587 ft | 408 kts | 91° |
| 2026-05-05 19:34 | -34.95752 | 139.31755 | 17185 ft | 412 kts | 91° |
| 2026-05-05 19:35 | -34.95914 | 139.38805 | 18377 ft | 420 kts | 91° |
| 2026-05-05 19:35 | -34.95994 | 139.42386 | 18899 ft | 424 kts | 91° |
| 2026-05-05 19:35 | -34.96073 | 139.45995 | 19392 ft | 428 kts | 91° |
| 2026-05-05 19:35 | -34.96152 | 139.49630 | 19874 ft | 431 kts | 91° |
| 2026-05-05 19:36 | -34.96231 | 139.53312 | 20360 ft | 435 kts | 91° |
| 2026-05-05 19:36 | -34.96310 | 139.57018 | 20819 ft | 439 kts | 91° |
| 2026-05-05 19:36 | -34.96388 | 139.60764 | 21282 ft | 443 kts | 90° |
| 2026-05-05 19:36 | -34.96465 | 139.64495 | 21739 ft | 447 kts | 90° |
| 2026-05-05 19:37 | -34.96542 | 139.68309 | 22186 ft | 450 kts | 90° |
| 2026-05-05 19:37 | -34.96618 | 139.72142 | 22625 ft | 454 kts | 90° |
| 2026-05-05 19:37 | -34.96694 | 139.76016 | 23055 ft | 458 kts | 90° |
| 2026-05-05 19:37 | -34.96769 | 139.79919 | 23449 ft | 462 kts | 90° |
| 2026-05-05 19:38 | -34.96843 | 139.83811 | 23863 ft | 466 kts | 90° |
| 2026-05-05 19:38 | -34.96917 | 139.87770 | 24226 ft | 468 kts | 90° |
| 2026-05-05 19:38 | -34.96990 | 139.91754 | 24624 ft | 470 kts | 90° |
| 2026-05-05 19:38 | -34.97063 | 139.95748 | 25015 ft | 471 kts | 90° |
| 2026-05-05 19:39 | -34.97134 | 139.99761 | 25359 ft | 474 kts | 90° |
| 2026-05-05 19:39 | -34.97204 | 140.03795 | 25684 ft | 477 kts | 90° |
| 2026-05-05 19:39 | -34.97250 | 140.06490 | 25911 ft | 478 kts | 90° |
| 2026-05-05 19:39 | -34.97340 | 140.11884 | 26387 ft | 481 kts | 90° |
| 2026-05-05 19:40 | -34.97386 | 140.14647 | 26617 ft | 482 kts | 90° |
| 2026-05-05 19:40 | -34.97473 | 140.20085 | 27066 ft | 485 kts | 89° |
| 2026-05-05 19:40 | -34.97516 | 140.22814 | 27266 ft | 486 kts | 89° |
| 2026-05-05 19:40 | -34.97580 | 140.26943 | 27573 ft | 488 kts | 89° |
| 2026-05-05 19:41 | -34.97644 | 140.31108 | 27886 ft | 490 kts | 89° |
| 2026-05-05 19:41 | -34.97706 | 140.35276 | 28184 ft | 492 kts | 89° |
| 2026-05-05 19:41 | -34.97754 | 140.39458 | 28479 ft | 494 kts | 89° |
| 2026-05-05 19:41 | -34.97790 | 140.43662 | 28770 ft | 496 kts | 88° |
| 2026-05-05 19:42 | -34.97820 | 140.47883 | 29026 ft | 498 kts | 88° |
| 2026-05-05 19:42 | -34.97847 | 140.52071 | 29320 ft | 499 kts | 88° |
| 2026-05-05 19:42 | -34.97876 | 140.56312 | 29770 ft | 497 kts | 88° |
| 2026-05-05 19:42 | -34.97904 | 140.60522 | 30265 ft | 494 kts | 88° |
| 2026-05-05 19:43 | -34.97932 | 140.64700 | 30638 ft | 493 kts | 88° |
| 2026-05-05 19:43 | -34.97959 | 140.68890 | 30899 ft | 494 kts | 88° |
| 2026-05-05 19:43 | -34.97985 | 140.73092 | 31144 ft | 495 kts | 88° |
| 2026-05-05 19:43 | -34.98008 | 140.77244 | 31451 ft | 494 kts | 88° |
| 2026-05-05 19:44 | -34.98032 | 140.81431 | 31796 ft | 493 kts | 88° |
| 2026-05-05 19:44 | -34.98053 | 140.85606 | 32123 ft | 492 kts | 88° |
| 2026-05-05 19:44 | -34.98073 | 140.89782 | 32406 ft | 492 kts | 88° |
| 2026-05-05 19:44 | -34.98091 | 140.93966 | 32668 ft | 492 kts | 88° |
| 2026-05-05 19:45 | -34.98108 | 140.98146 | 32984 ft | 492 kts | 88° |
| 2026-05-05 19:45 | -34.98123 | 141.02317 | 33293 ft | 491 kts | 88° |
| 2026-05-05 19:45 | -34.98137 | 141.06430 | 33598 ft | 489 kts | 88° |
| 2026-05-05 19:45 | -34.98150 | 141.10590 | 33914 ft | 488 kts | 88° |
| 2026-05-05 19:46 | -34.98161 | 141.14734 | 34168 ft | 488 kts | 88° |
| 2026-05-05 19:46 | -34.98171 | 141.18887 | 34415 ft | 488 kts | 88° |
| 2026-05-05 19:46 | -34.98179 | 141.22983 | 34652 ft | 488 kts | 88° |
| 2026-05-05 19:46 | -34.98186 | 141.27123 | 34878 ft | 487 kts | 88° |
| 2026-05-05 19:47 | -34.98191 | 141.31260 | 35092 ft | 487 kts | 88° |
| 2026-05-05 19:47 | -34.98195 | 141.35398 | 35248 ft | 489 kts | 88° |
| 2026-05-05 19:47 | -34.98198 | 141.39560 | 35237 ft | 493 kts | 88° |
| 2026-05-05 19:48 | -34.98200 | 141.47982 | 35255 ft | 499 kts | 88° |
| 2026-05-05 19:48 | -34.98194 | 141.56469 | 35239 ft | 502 kts | 88° |
| 2026-05-05 19:49 | -34.98182 | 141.64954 | 35242 ft | 502 kts | 87° |
| 2026-05-05 19:49 | -34.98166 | 141.73496 | 35241 ft | 502 kts | 87° |
| 2026-05-05 19:50 | -34.98144 | 141.81966 | 35240 ft | 502 kts | 87° |
| 2026-05-05 19:50 | -34.98115 | 141.90494 | 35239 ft | 500 kts | 87° |
| 2026-05-05 19:51 | -34.98081 | 141.98986 | 35243 ft | 499 kts | 87° |
| 2026-05-05 19:51 | -34.98041 | 142.07401 | 35243 ft | 499 kts | 87° |
| 2026-05-05 19:52 | -34.97995 | 142.15858 | 35235 ft | 497 kts | 87° |
| 2026-05-05 19:52 | -34.97943 | 142.24294 | 35241 ft | 496 kts | 87° |
| 2026-05-05 19:53 | -34.97885 | 142.32721 | 35241 ft | 496 kts | 87° |
| 2026-05-05 19:53 | -34.97822 | 142.41106 | 35240 ft | 496 kts | 87° |
| 2026-05-05 19:54 | -34.97753 | 142.49531 | 35239 ft | 496 kts | 87° |
| 2026-05-05 19:54 | -34.97678 | 142.57948 | 35241 ft | 496 kts | 87° |
| 2026-05-05 19:55 | -34.97598 | 142.66326 | 35233 ft | 496 kts | 87° |
| 2026-05-05 19:55 | -34.97511 | 142.74753 | 35239 ft | 495 kts | 87° |
| 2026-05-05 19:56 | -34.97419 | 142.83111 | 35239 ft | 495 kts | 87° |
| 2026-05-05 19:56 | -34.97322 | 142.91515 | 35240 ft | 495 kts | 87° |
| 2026-05-05 19:57 | -34.97218 | 142.99918 | 35237 ft | 495 kts | 87° |
| 2026-05-05 19:57 | -34.97109 | 143.08273 | 35237 ft | 495 kts | 87° |
| 2026-05-05 19:58 | -34.96995 | 143.16679 | 35239 ft | 495 kts | 87° |
| 2026-05-05 19:58 | -34.96876 | 143.25092 | 35233 ft | 495 kts | 87° |
| 2026-05-05 19:59 | -34.96771 | 143.33498 | 35239 ft | 495 kts | 87° |
| 2026-05-05 19:59 | -34.96670 | 143.41849 | 35239 ft | 495 kts | 87° |
| 2026-05-05 20:00 | -34.96561 | 143.50261 | 35239 ft | 495 kts | 87° |
| 2026-05-05 20:00 | -34.96446 | 143.58611 | 35243 ft | 495 kts | 87° |
| 2026-05-05 20:01 | -34.96323 | 143.67002 | 35242 ft | 495 kts | 87° |
| 2026-05-05 20:01 | -34.96194 | 143.75401 | 35241 ft | 495 kts | 87° |
| 2026-05-05 20:02 | -34.96060 | 143.83797 | 35234 ft | 495 kts | 87° |
| 2026-05-05 20:02 | -34.95920 | 143.92190 | 35240 ft | 494 kts | 87° |
| 2026-05-05 20:03 | -34.95775 | 144.00525 | 35238 ft | 494 kts | 87° |
| 2026-05-05 20:03 | -34.95624 | 144.08911 | 35239 ft | 494 kts | 87° |
| 2026-05-05 20:04 | -34.95467 | 144.17298 | 35236 ft | 494 kts | 87° |
| 2026-05-05 20:04 | -34.95304 | 144.25683 | 35239 ft | 494 kts | 87° |
| 2026-05-05 20:05 | -34.95136 | 144.34017 | 35239 ft | 494 kts | 87° |
| 2026-05-05 20:05 | -34.94961 | 144.42439 | 35240 ft | 495 kts | 87° |
| 2026-05-05 20:06 | -34.94782 | 144.50780 | 35242 ft | 495 kts | 87° |
| 2026-05-05 20:06 | -34.94595 | 144.59205 | 35239 ft | 495 kts | 87° |
| 2026-05-05 20:07 | -34.94404 | 144.67557 | 35234 ft | 495 kts | 87° |
| 2026-05-05 20:07 | -34.94206 | 144.75974 | 35231 ft | 495 kts | 87° |
| 2026-05-05 20:08 | -34.94003 | 144.84338 | 35238 ft | 496 kts | 87° |
| 2026-05-05 20:08 | -34.93795 | 144.92707 | 35236 ft | 496 kts | 87° |
| 2026-05-05 20:09 | -34.93581 | 145.01109 | 35238 ft | 495 kts | 87° |
| 2026-05-05 20:09 | -34.93360 | 145.09512 | 35236 ft | 495 kts | 87° |
| 2026-05-05 20:10 | -34.93128 | 145.17862 | 35234 ft | 495 kts | 87° |
| 2026-05-05 20:10 | -34.92887 | 145.26276 | 35234 ft | 495 kts | 87° |
| 2026-05-05 20:11 | -34.92641 | 145.34649 | 35235 ft | 496 kts | 87° |
| 2026-05-05 20:11 | -34.92391 | 145.43052 | 35234 ft | 496 kts | 87° |
| 2026-05-05 20:12 | -34.92135 | 145.51443 | 35233 ft | 496 kts | 87° |
| 2026-05-05 20:12 | -34.91872 | 145.59856 | 35231 ft | 496 kts | 87° |
| 2026-05-05 20:13 | -34.91606 | 145.68213 | 35231 ft | 496 kts | 87° |
| 2026-05-05 20:13 | -34.91332 | 145.76616 | 35237 ft | 495 kts | 87° |
| 2026-05-05 20:14 | -34.91053 | 145.85002 | 35232 ft | 495 kts | 87° |
| 2026-05-05 20:14 | -34.90770 | 145.93353 | 35234 ft | 495 kts | 87° |
| 2026-05-05 20:15 | -34.90479 | 146.01741 | 35234 ft | 495 kts | 87° |
| 2026-05-05 20:15 | -34.90183 | 146.10124 | 35232 ft | 495 kts | 87° |
| 2026-05-05 20:16 | -34.89881 | 146.18515 | 35232 ft | 495 kts | 87° |
| 2026-05-05 20:16 | -34.89575 | 146.26840 | 35236 ft | 494 kts | 87° |
| 2026-05-05 20:17 | -34.89262 | 146.35222 | 35230 ft | 494 kts | 87° |
| 2026-05-05 20:17 | -34.88942 | 146.43609 | 35237 ft | 495 kts | 86° |
| 2026-05-05 20:18 | -34.88619 | 146.51938 | 35236 ft | 495 kts | 86° |
| 2026-05-05 20:18 | -34.88289 | 146.60311 | 35235 ft | 495 kts | 86° |
| 2026-05-05 20:19 | -34.87953 | 146.68690 | 35239 ft | 495 kts | 86° |
| 2026-05-05 20:19 | -34.87610 | 146.77070 | 35232 ft | 495 kts | 86° |
| 2026-05-05 20:20 | -34.87263 | 146.85435 | 35245 ft | 494 kts | 86° |
| 2026-05-05 20:20 | -34.86912 | 146.93742 | 35243 ft | 494 kts | 86° |
| 2026-05-05 20:21 | -34.86554 | 147.02108 | 35241 ft | 494 kts | 86° |
| 2026-05-05 20:21 | -34.86189 | 147.10485 | 35247 ft | 494 kts | 86° |
| 2026-05-05 20:22 | -34.85921 | 147.16593 | 35242 ft | 494 kts | 86° |
| 2026-05-05 20:22 | -34.85545 | 147.24959 | 35243 ft | 495 kts | 86° |
| 2026-05-05 20:23 | -34.85163 | 147.33334 | 35241 ft | 495 kts | 86° |
| 2026-05-05 20:23 | -34.84776 | 147.41709 | 35236 ft | 495 kts | 86° |
| 2026-05-05 20:24 | -34.84385 | 147.50076 | 35248 ft | 495 kts | 86° |
| 2026-05-05 20:24 | -34.83989 | 147.58390 | 35246 ft | 495 kts | 86° |
| 2026-05-05 20:25 | -34.83586 | 147.66765 | 35243 ft | 495 kts | 86° |
| 2026-05-05 20:25 | -34.83176 | 147.75136 | 35250 ft | 495 kts | 86° |
| 2026-05-05 20:26 | -34.82832 | 147.82091 | 35257 ft | 495 kts | 86° |
| 2026-05-05 20:26 | -34.82414 | 147.90426 | 35258 ft | 495 kts | 86° |
| 2026-05-05 20:27 | -34.81986 | 147.98834 | 35245 ft | 496 kts | 86° |
| 2026-05-05 20:27 | -34.81556 | 148.07164 | 35254 ft | 495 kts | 86° |
| 2026-05-05 20:28 | -34.81118 | 148.15547 | 35262 ft | 495 kts | 86° |
| 2026-05-05 20:28 | -34.80678 | 148.23877 | 35253 ft | 495 kts | 85° |
| 2026-05-05 20:29 | -34.80229 | 148.32253 | 35263 ft | 495 kts | 85° |
| 2026-05-05 20:29 | -34.79774 | 148.40630 | 35261 ft | 495 kts | 85° |
| 2026-05-05 20:30 | -34.79316 | 148.48949 | 35261 ft | 495 kts | 85° |
| 2026-05-05 20:30 | -34.78850 | 148.57322 | 35267 ft | 495 kts | 85° |
| 2026-05-05 20:31 | -34.78378 | 148.65693 | 35264 ft | 495 kts | 85° |
| 2026-05-05 20:31 | -34.77905 | 148.73979 | 35271 ft | 494 kts | 85° |
| 2026-05-05 20:32 | -34.77426 | 148.82277 | 35269 ft | 494 kts | 85° |
| 2026-05-05 20:32 | -34.76936 | 148.90661 | 35277 ft | 493 kts | 85° |
| 2026-05-05 20:33 | -34.76445 | 148.98961 | 35274 ft | 494 kts | 85° |
| 2026-05-05 20:33 | -34.75949 | 149.07265 | 35274 ft | 494 kts | 85° |
| 2026-05-05 20:34 | -34.75448 | 149.15552 | 35283 ft | 494 kts | 85° |
| 2026-05-05 20:34 | -34.75192 | 149.19741 | 34862 ft | 496 kts | 85° |
| 2026-05-05 20:34 | -34.74938 | 149.23896 | 34267 ft | 491 kts | 85° |
| 2026-05-05 20:34 | -34.74681 | 149.28069 | 33348 ft | 494 kts | 85° |
| 2026-05-05 20:35 | -34.74423 | 149.32240 | 32648 ft | 492 kts | 85° |
| 2026-05-05 20:35 | -34.74055 | 149.36374 | 31890 ft | 491 kts | 79° |
| 2026-05-05 20:35 | -34.73219 | 149.40350 | 31170 ft | 490 kts | 70° |
| 2026-05-05 20:35 | -34.71912 | 149.44154 | 30503 ft | 487 kts | 61° |
| 2026-05-05 20:36 | -34.70310 | 149.47767 | 29943 ft | 481 kts | 60° |
| 2026-05-05 20:36 | -34.68703 | 149.51329 | 29336 ft | 476 kts | 60° |
| 2026-05-05 20:36 | -34.67126 | 149.54839 | 28785 ft | 470 kts | 60° |
| 2026-05-05 20:36 | -34.65609 | 149.58248 | 28242 ft | 465 kts | 60° |
| 2026-05-05 20:37 | -34.64091 | 149.61689 | 27685 ft | 460 kts | 60° |
| 2026-05-05 20:37 | -34.62593 | 149.65103 | 27140 ft | 455 kts | 61° |
| 2026-05-05 20:37 | -34.61114 | 149.68479 | 26598 ft | 451 kts | 60° |
| 2026-05-05 20:37 | -34.59656 | 149.71808 | 26068 ft | 447 kts | 60° |
| 2026-05-05 20:38 | -34.58199 | 149.75131 | 25542 ft | 443 kts | 60° |
| 2026-05-05 20:38 | -34.56752 | 149.78425 | 25022 ft | 440 kts | 60° |
| 2026-05-05 20:38 | -34.55299 | 149.81727 | 24513 ft | 453 kts | 60° |
| 2026-05-05 20:38 | -34.53775 | 149.85187 | 23939 ft | 475 kts | 60° |
| 2026-05-05 20:39 | -34.52235 | 149.88682 | 23267 ft | 475 kts | 61° |
| 2026-05-05 20:39 | -34.50685 | 149.92198 | 22643 ft | 469 kts | 61° |
| 2026-05-05 20:39 | -34.49155 | 149.95663 | 22134 ft | 462 kts | 61° |
| 2026-05-05 20:39 | -34.47643 | 149.99081 | 21598 ft | 457 kts | 61° |
| 2026-05-05 20:40 | -34.46147 | 150.02461 | 21035 ft | 453 kts | 61° |
| 2026-05-05 20:40 | -34.44657 | 150.05822 | 20472 ft | 451 kts | 61° |
| 2026-05-05 20:40 | -34.43192 | 150.09126 | 19919 ft | 448 kts | 61° |
| 2026-05-05 20:40 | -34.41699 | 150.12490 | 19369 ft | 446 kts | 61° |
| 2026-05-05 20:41 | -34.40253 | 150.15745 | 18823 ft | 444 kts | 61° |
| 2026-05-05 20:41 | -34.38791 | 150.19034 | 18203 ft | 442 kts | 61° |
| 2026-05-05 20:41 | -34.37340 | 150.22298 | 17599 ft | 438 kts | 61° |
| 2026-05-05 20:41 | -34.35901 | 150.25528 | 17028 ft | 433 kts | 61° |
| 2026-05-05 20:42 | -34.34473 | 150.28732 | 16472 ft | 429 kts | 61° |
| 2026-05-05 20:42 | -34.33064 | 150.31891 | 15920 ft | 425 kts | 60° |
| 2026-05-05 20:42 | -34.31666 | 150.35022 | 15389 ft | 422 kts | 60° |
| 2026-05-05 20:42 | -34.30275 | 150.38137 | 14857 ft | 419 kts | 60° |
| 2026-05-05 20:43 | -34.28891 | 150.41230 | 14327 ft | 416 kts | 60° |
| 2026-05-05 20:43 | -34.27533 | 150.44263 | 13781 ft | 414 kts | 60° |
| 2026-05-05 20:43 | -34.26165 | 150.47319 | 13216 ft | 410 kts | 60° |
| 2026-05-05 20:43 | -34.24812 | 150.50340 | 12665 ft | 406 kts | 60° |
| 2026-05-05 20:44 | -34.23470 | 150.53334 | 12129 ft | 402 kts | 61° |
| 2026-05-05 20:44 | -34.22160 | 150.56259 | 11617 ft | 398 kts | 61° |
| 2026-05-05 20:44 | -34.20849 | 150.59182 | 11157 ft | 393 kts | 61° |
| 2026-05-05 20:44 | -34.19562 | 150.62050 | 11008 ft | 384 kts | 61° |
| 2026-05-05 20:45 | -34.16974 | 150.67802 | 10667 ft | 392 kts | 60° |
| 2026-05-05 20:45 | -34.15676 | 150.70687 | 10506 ft | 389 kts | 61° |
| 2026-05-05 20:45 | -34.14383 | 150.73558 | 10248 ft | 387 kts | 61° |
| 2026-05-05 20:46 | -34.13129 | 150.76342 | 9938 ft | 367 kts | 60° |
| 2026-05-05 20:46 | -34.11966 | 150.78927 | 9931 ft | 341 kts | 60° |
| 2026-05-05 20:46 | -34.10867 | 150.81361 | 9867 ft | 320 kts | 60° |
| 2026-05-05 20:46 | -34.09829 | 150.83661 | 9739 ft | 303 kts | 60° |
| 2026-05-05 20:47 | -34.08849 | 150.85838 | 9634 ft | 287 kts | 60° |
| 2026-05-05 20:47 | -34.07929 | 150.87884 | 9425 ft | 276 kts | 61° |
| 2026-05-05 20:47 | -34.07019 | 150.89905 | 9056 ft | 272 kts | 60° |
| 2026-05-05 20:47 | -34.06117 | 150.91905 | 8665 ft | 270 kts | 61° |
| 2026-05-05 20:48 | -34.05227 | 150.93879 | 8272 ft | 267 kts | 60° |
| 2026-05-05 20:48 | -34.04336 | 150.95851 | 7818 ft | 267 kts | 61° |
| 2026-05-05 20:48 | -34.03461 | 150.97815 | 7497 ft | 263 kts | 65° |
| 2026-05-05 20:48 | -34.03101 | 150.99940 | 7129 ft | 260 kts | 95° |
| 2026-05-05 20:49 | -34.03633 | 151.02007 | 6866 ft | 259 kts | 119° |
| 2026-05-05 20:49 | -34.04738 | 151.03724 | 6665 ft | 261 kts | 131° |
| 2026-05-05 20:49 | -34.05993 | 151.05300 | 6406 ft | 264 kts | 133° |
| 2026-05-05 20:49 | -34.07279 | 151.06871 | 6159 ft | 262 kts | 136° |
| 2026-05-05 20:50 | -34.08841 | 151.07964 | 5936 ft | 261 kts | 161° |
| 2026-05-05 20:50 | -34.10600 | 151.08458 | 5736 ft | 260 kts | 166° |
| 2026-05-05 20:50 | -34.12385 | 151.08896 | 5488 ft | 262 kts | 166° |
| 2026-05-05 20:50 | -34.14174 | 151.09342 | 5200 ft | 263 kts | 166° |
| 2026-05-05 20:51 | -34.15962 | 151.09797 | 4891 ft | 263 kts | 166° |
| 2026-05-05 20:51 | -34.17769 | 151.10262 | 4501 ft | 266 kts | 166° |
| 2026-05-05 20:51 | -34.19555 | 151.10864 | 4107 ft | 266 kts | 152° |
| 2026-05-05 20:51 | -34.20954 | 151.12276 | 3735 ft | 264 kts | 123° |
| 2026-05-05 20:52 | -34.21607 | 151.14313 | 3390 ft | 260 kts | 95° |
| 2026-05-05 20:52 | -34.21545 | 151.16458 | 3064 ft | 252 kts | 84° |
| 2026-05-05 20:52 | -34.21308 | 151.18460 | 3004 ft | 236 kts | 75° |
| 2026-05-05 20:52 | -34.20490 | 151.20124 | 3010 ft | 232 kts | 43° |
| 2026-05-05 20:53 | -34.19167 | 151.21263 | 3016 ft | 237 kts | 35° |
| 2026-05-05 20:53 | -34.17754 | 151.22331 | 3012 ft | 240 kts | 33° |
| 2026-05-05 20:53 | -34.16234 | 151.23141 | 2984 ft | 239 kts | 8° |
| 2026-05-05 20:53 | -34.14597 | 151.22873 | 3025 ft | 241 kts | 345° |
| 2026-05-05 20:54 | -34.12961 | 151.22357 | 3011 ft | 244 kts | 349° |
| 2026-05-05 20:54 | -34.11319 | 151.21937 | 2950 ft | 235 kts | 350° |
| 2026-05-05 20:54 | -34.09762 | 151.21540 | 2708 ft | 222 kts | 350° |
| 2026-05-05 20:54 | -34.08300 | 151.21160 | 2436 ft | 212 kts | 350° |
| 2026-05-05 20:55 | -34.06884 | 151.20792 | 2150 ft | 204 kts | 349° |
| 2026-05-05 20:55 | -34.05518 | 151.20436 | 1872 ft | 198 kts | 348° |
| 2026-05-05 20:55 | -34.04193 | 151.20091 | 1617 ft | 191 kts | 348° |
| 2026-05-05 20:55 | -34.02931 | 151.19762 | 1369 ft | 180 kts | 347° |
| 2026-05-05 20:56 | -34.01729 | 151.19450 | 1121 ft | 173 kts | 346° |
| 2026-05-05 20:56 | -34.00545 | 151.19139 | 909 ft | 173 kts | 345° |
| 2026-05-05 20:56 | -33.99412 | 151.18846 | 690 ft | 159 kts | 346° |
| 2026-05-05 20:56 | -33.98369 | 151.18573 | 469 ft | 149 kts | 347° |
| 2026-05-05 20:57 | -33.97396 | 151.18320 | 267 ft | 143 kts | 346° |
| 2026-05-05 20:57 | -33.96421 | 151.18067 | 87 ft | 141 kts | 347° |
| 2026-05-05 20:57 | -33.95509 | 151.17827 | 28 ft | 124 kts | 347° |
| 2026-05-05 20:57 | -33.94780 | 151.17639 | 28 ft | 89 kts | 349° |
| 2026-05-05 20:58 | -33.94321 | 151.17521 | 29 ft | 54 kts | 347° |
| 2026-05-05 20:58 | -33.94071 | 151.17452 | 29 ft | 21 kts | 348° |
| 2026-05-05 20:58 | -33.93943 | 151.17422 | 28 ft | 16 kts | 5° |
| 2026-05-05 20:58 | -33.93903 | 151.17510 | 27 ft | 12 kts | 75° |
| 2026-05-05 20:59 | -33.93880 | 151.17601 | 28 ft | 11 kts | 72° |
| 2026-05-05 20:59 | -33.93860 | 151.17681 | 28 ft | 11 kts | 72° |
| 2026-05-05 20:59 | -33.93822 | 151.17755 | 29 ft | 11 kts | 30° |
| 2026-05-05 20:59 | -33.93789 | 151.17766 | 29 ft | 11 kts | 6° |
| 2026-05-05 21:00 | -33.93721 | 151.17785 | 29 ft | 10 kts | 15° |
| 2026-05-05 21:00 | -33.93655 | 151.17806 | 29 ft | 10 kts | 13° |
| 2026-05-05 21:00 | -33.93592 | 151.17821 | 29 ft | 9 kts | 11° |
| 2026-05-05 21:00 | -33.93571 | 151.17870 | 29 ft | 7 kts | 104° |
| 2026-05-05 21:01 | -33.93575 | 151.17893 | 29 ft | 2 kts | 102° |
| 2026-05-05 21:01 | -33.93576 | 151.17901 | 29 ft | 0 kts | 101° |